Portada
METAR-TAF:

METAR-TAF

Aeropuertos :

Túnez, Túnez

Aeropuerto Internacional de Túnez-Cartago

latitud: 36-50N, longitud: 010-14E, altitud: 3 m

Observación

El informe se hizo hace 26 minutos, a las 09:30 UTC
Viento 16 kt del oeste-noroeste, variando entre oeste y norte-noroeste
Temperatura 22°C
Humedad 53%
Presión 1018 hPa
Visibilidad 10 km o más
Nubes dispersas a una altura de 2600 ft, Cumulus congestus.
Nubes dispersas a una altura de 3600 ft

METAR: DTTA 230930Z 29016KT 260V330 9999 SCT026TCU SCT036 22/12 Q1018 NOSIG

Hora: 10:56 (09:56 UTC)

Pronóstico

El informe se hizo hace 4 horas y 16 minutos, a las 05:40 UTC
Pronóstico válido del 23 a las 06 UTC al 24 a las 06 UTC
Viento 12 kt con dirección variable
Visibilidad: 8000 m
Nubes dispersas a una altura de 2600 ft
Temporalmente
del 23 a las 09 UTC al 24 a las 03 UTC
Viento 20 kt del norte-noroeste con ráfagas de 30 kt

TAF: DTTA 230540Z 2306/2406 VRB12KT 8000 SCT026 TEMPO 2309/2403 33020G30KT

Observaciones y pronósticos meteorológicos de más de 4000 aeropuertos (mensajes METAR y TAF).

Los puntos amarillos y rojos representan las estaciones disponibles.

Ponga el ratón en el punto deseado para ver el nombre de la estación.

Haga clic para ver las observaciones y los pronósticos meteorológicos.

Para cambiar el mapa : haga clic en los botones verdes con una cruz de color negro para hacer un zoom, en el botón verde con un guión para alejar o en las flechas verdes para mapas adyacentes.


METAR-TAF: